createdAt,value
2023-02-25T00:01:24.150Z,18.98
2023-02-25T00:03:25.967Z,19.70
2023-02-25T00:05:29.499Z,19.25
2023-02-25T00:07:33.808Z,18.42
2023-02-25T00:09:35.432Z,18.58
2023-02-25T00:11:37.116Z,18.98
2023-02-25T00:13:40.479Z,18.20
2023-02-25T00:15:42.022Z,19.80
2023-02-25T00:17:43.979Z,18.20
2023-02-25T00:19:45.835Z,20.25
2023-02-25T00:21:47.465Z,19.25
2023-02-25T00:23:50.310Z,19.25
2023-02-25T00:26:01.563Z,21.10
2023-02-25T00:28:06.513Z,22.08
2023-02-25T00:30:10.903Z,22.40
2023-02-25T00:32:12.718Z,21.55
2023-02-25T00:34:14.537Z,21.73
2023-02-25T00:36:23.215Z,21.80
2023-02-25T00:38:25.099Z,20.90
2023-02-25T00:40:26.742Z,21.15
2023-02-25T00:42:28.373Z,19.65
2023-02-25T00:44:29.999Z,20.33
2023-02-25T00:46:32.011Z,19.95
2023-02-25T00:48:33.789Z,19.17
2023-02-25T00:50:35.784Z,18.83
2023-02-25T00:52:38.044Z,19.10
2023-02-25T00:54:39.627Z,18.92
2023-02-25T00:56:41.299Z,18.42
2023-02-25T00:58:44.471Z,18.63
2023-02-25T01:00:51.480Z,18.17
2023-02-25T01:02:56.362Z,18.05
2023-02-25T01:04:57.990Z,17.48
2023-02-25T01:06:59.672Z,17.83
2023-02-25T01:09:01.455Z,19.40
2023-02-25T01:11:36.285Z,17.40
2023-02-25T01:13:37.907Z,18.63
2023-02-25T01:15:39.642Z,18.40
2023-02-25T01:17:41.260Z,17.60
2023-02-25T01:19:42.871Z,17.02
2023-02-25T01:21:46.577Z,16.65
2023-02-25T01:24:01.152Z,18.88
2023-02-25T01:26:09.867Z,16.75
2023-02-25T01:28:14.494Z,17.95
2023-02-25T01:30:17.091Z,17.17
2023-02-25T01:32:18.732Z,16.92
2023-02-25T01:34:21.054Z,17.20
2023-02-25T01:36:27.031Z,16.02
2023-02-25T01:38:28.611Z,17.13
2023-02-25T01:40:33.864Z,16.83
2023-02-25T01:42:35.474Z,17.40
2023-02-25T01:45:12.135Z,16.27
2023-02-25T01:47:20.520Z,16.52
2023-02-25T01:49:43.652Z,15.98
2023-02-25T01:51:48.300Z,17.20
2023-02-25T01:53:49.880Z,16.42
2023-02-25T01:55:51.881Z,16.67
2023-02-25T01:57:53.702Z,15.85
2023-02-25T01:59:55.486Z,15.52
2023-02-25T02:01:57.337Z,15.30
2023-02-25T02:03:58.929Z,14.60
2023-02-25T02:06:30.978Z,15.15
2023-02-25T02:08:33.832Z,15.85
2023-02-25T02:10:35.489Z,15.90
2023-02-25T02:12:43.051Z,14.85
2023-02-25T02:14:44.698Z,15.20
2023-02-25T02:16:53.443Z,14.45
2023-02-25T02:19:01.725Z,14.95
2023-02-25T02:21:18.522Z,15.07
2023-02-25T02:23:44.719Z,14.23
2023-02-25T02:26:10.420Z,14.70
2023-02-25T02:28:20.869Z,15.82
2023-02-25T02:30:36.734Z,15.05
2023-02-25T02:32:48.624Z,14.63
2023-02-25T02:35:16.595Z,15.07
2023-02-25T02:37:40.877Z,15.63
2023-02-25T02:40:16.462Z,14.80
2023-02-25T02:42:27.700Z,15.55
2023-02-25T02:44:44.496Z,15.13
2023-02-25T02:46:49.665Z,15.80
2023-02-25T02:48:55.291Z,15.65
2023-02-25T02:51:01.743Z,16.02
2023-02-25T02:53:32.485Z,14.73
2023-02-25T02:55:41.229Z,15.00
2023-02-25T02:57:43.108Z,14.40
2023-02-25T02:59:52.167Z,15.80
2023-02-25T03:02:08.799Z,15.30
2023-02-25T03:04:13.524Z,15.25
2023-02-25T03:06:19.588Z,16.05
2023-02-25T03:08:26.454Z,14.07
2023-02-25T03:10:28.249Z,16.10
2023-02-25T03:12:30.197Z,14.77
2023-02-25T03:14:31.789Z,15.38
2023-02-25T03:16:58.287Z,15.30
2023-02-25T03:19:05.945Z,16.70
2023-02-25T03:21:18.351Z,15.60
2023-02-25T03:23:31.550Z,15.40
2023-02-25T03:25:36.374Z,16.08
2023-02-25T03:27:40.261Z,16.33
2023-02-25T03:31:50.132Z,16.27
2023-02-25T03:33:53.716Z,16.40
2023-02-25T03:35:56.807Z,17.15
2023-02-25T03:38:08.367Z,17.77
2023-02-25T03:40:13.001Z,16.15
2023-02-25T03:42:20.919Z,17.23
2023-02-25T03:44:25.953Z,16.95
2023-02-25T03:46:28.161Z,16.77
2023-02-25T03:48:30.505Z,16.45
2023-02-25T03:50:36.168Z,16.75
2023-02-25T03:52:39.565Z,17.17
2023-02-25T03:54:41.256Z,17.08
2023-02-25T03:56:44.933Z,17.85
2023-02-25T03:58:46.541Z,17.40
2023-02-25T04:00:49.718Z,16.20
2023-02-25T04:02:51.712Z,17.40
2023-02-25T04:04:56.379Z,17.23
2023-02-25T04:06:58.106Z,17.60
2023-02-25T04:08:59.753Z,19.08
2023-02-25T04:11:01.314Z,17.23
2023-02-25T04:13:02.898Z,16.48
2023-02-25T04:15:08.607Z,18.25
2023-02-25T04:17:11.767Z,17.75
2023-02-25T04:19:13.390Z,17.98
2023-02-25T04:21:36.213Z,19.48
2023-02-25T04:23:37.827Z,17.80
2023-02-25T04:25:39.435Z,17.58
2023-02-25T04:27:50.202Z,18.33
2023-02-25T04:29:51.921Z,19.10
2023-02-25T04:31:53.854Z,17.98
2023-02-25T04:33:58.038Z,18.45
2023-02-25T04:36:02.917Z,18.45
2023-02-25T04:38:04.545Z,17.17
2023-02-25T04:40:13.682Z,17.85
2023-02-25T04:42:15.275Z,17.73
2023-02-25T04:44:16.862Z,17.20
2023-02-25T04:46:18.659Z,16.08
2023-02-25T04:48:24.245Z,17.42
2023-02-25T04:50:26.466Z,17.42
2023-02-25T04:52:28.414Z,17.55
2023-02-25T04:54:29.976Z,14.88
2023-02-25T04:56:31.618Z,15.18
2023-02-25T04:58:33.901Z,16.58
2023-02-25T05:00:35.498Z,15.27
2023-02-25T05:02:37.119Z,15.00
2023-02-25T05:04:39.510Z,15.90
2023-02-25T05:06:41.106Z,14.68
2023-02-25T05:08:42.774Z,14.88
2023-02-25T05:10:44.349Z,14.55
2023-02-25T05:12:45.960Z,14.85
2023-02-25T05:14:47.775Z,14.68
2023-02-25T05:16:49.435Z,13.95
2023-02-25T05:18:51.018Z,15.93
2023-02-25T05:20:54.070Z,14.18
2023-02-25T05:22:58.644Z,15.68
2023-02-25T05:25:00.440Z,15.68
2023-02-25T05:27:09.027Z,15.10
2023-02-25T05:29:11.271Z,15.57
2023-02-25T05:31:13.137Z,16.63
2023-02-25T05:33:14.865Z,16.48
2023-02-25T05:35:16.504Z,17.73
2023-02-25T05:37:18.143Z,18.02
2023-02-25T05:39:23.139Z,17.75
2023-02-25T05:41:26.165Z,18.20
2023-02-25T05:43:27.970Z,19.70
2023-02-25T05:45:29.714Z,20.90
2023-02-25T05:47:34.385Z,20.85
2023-02-25T05:49:35.953Z,19.92
2023-02-25T05:51:37.558Z,18.00
2023-02-25T05:53:39.664Z,18.20
2023-02-25T05:55:42.429Z,18.20
2023-02-25T05:57:44.036Z,17.20
2023-02-25T05:59:45.697Z,18.33
2023-02-25T06:01:47.423Z,18.23
2023-02-25T06:03:50.217Z,17.55
2023-02-25T06:05:53.389Z,18.85
2023-02-25T06:07:55.043Z,18.50
2023-02-25T06:10:00.760Z,17.58
2023-02-25T06:12:02.337Z,17.70
2023-02-25T06:14:04.068Z,17.77
2023-02-25T06:16:06.458Z,17.33
2023-02-25T06:18:08.693Z,17.65
2023-02-25T06:20:11.299Z,17.52
2023-02-25T06:22:13.490Z,17.15
2023-02-25T06:24:16.325Z,16.88
2023-02-25T06:26:18.489Z,16.80
2023-02-25T06:28:20.064Z,17.80
2023-02-25T06:30:21.671Z,16.73
2023-02-25T06:32:23.481Z,18.15
2023-02-25T06:34:25.261Z,18.73
2023-02-25T06:36:27.062Z,17.58
2023-02-25T06:38:28.872Z,17.38
2023-02-25T06:40:38.101Z,18.27
2023-02-25T06:42:39.739Z,18.58
2023-02-25T06:44:41.487Z,16.35
2023-02-25T06:46:43.075Z,17.30
2023-02-25T06:48:44.628Z,18.27
2023-02-25T06:50:46.239Z,17.88
2023-02-25T06:52:47.860Z,17.17
2023-02-25T06:54:50.543Z,17.88
2023-02-25T06:56:53.526Z,19.48
2023-02-25T06:58:56.748Z,18.63
2023-02-25T07:00:58.399Z,18.10
2023-02-25T07:03:03.054Z,16.67
2023-02-25T07:05:05.675Z,16.48
2023-02-25T07:07:07.959Z,17.25
2023-02-25T07:09:09.787Z,17.73
2023-02-25T07:11:26.977Z,15.55
2023-02-25T07:13:28.636Z,16.70
2023-02-25T07:15:30.246Z,16.45
2023-02-25T07:17:31.795Z,17.15
2023-02-25T07:19:33.412Z,15.15
2023-02-25T07:21:35.108Z,15.15
2023-02-25T07:23:36.815Z,15.07
2023-02-25T07:25:38.830Z,15.75
2023-02-25T07:27:44.227Z,15.88
2023-02-25T07:29:46.379Z,15.35
2023-02-25T07:31:48.167Z,14.80
2023-02-25T07:33:50.442Z,14.80
2023-02-25T07:35:54.704Z,16.02
2023-02-25T07:37:56.327Z,15.02
2023-02-25T07:40:01.079Z,15.00
2023-02-25T07:42:02.630Z,14.45
2023-02-25T07:44:06.229Z,15.40
2023-02-25T07:46:08.711Z,13.98
2023-02-25T07:48:13.465Z,14.20
2023-02-25T07:50:15.292Z,14.15
2023-02-25T07:52:16.937Z,13.63
2023-02-25T07:54:21.299Z,15.50
2023-02-25T07:56:24.541Z,15.48
2023-02-25T07:58:28.569Z,15.45
2023-02-25T08:00:30.340Z,14.15
2023-02-25T08:02:32.044Z,13.63
2023-02-25T08:04:33.916Z,14.18
2023-02-25T08:06:37.766Z,13.32
2023-02-25T08:10:40.922Z,13.25
2023-02-25T08:12:42.457Z,14.20
2023-02-25T08:14:46.893Z,14.15
2023-02-25T08:16:49.044Z,13.23
2023-02-25T08:18:53.007Z,12.65
2023-02-25T08:20:56.070Z,12.93
2023-02-25T08:22:59.141Z,12.90
2023-02-25T08:25:00.830Z,12.75
2023-02-25T08:27:02.497Z,13.38
2023-02-25T08:29:04.806Z,13.23
2023-02-25T08:31:08.450Z,13.57
2023-02-25T08:33:10.200Z,13.20
2023-02-25T08:35:14.829Z,13.05
2023-02-25T08:37:16.494Z,13.77
2023-02-25T08:39:21.862Z,15.05
2023-02-25T08:41:24.578Z,14.13
2023-02-25T08:43:26.299Z,12.65
2023-02-25T08:45:28.879Z,13.18
2023-02-25T08:47:30.524Z,12.80
2023-02-25T08:49:32.129Z,13.38
2023-02-25T08:51:36.616Z,12.75
2023-02-25T08:53:39.860Z,13.18
2023-02-25T08:55:41.932Z,14.15
2023-02-25T08:57:43.837Z,14.30
2023-02-25T08:59:45.438Z,14.75
2023-02-25T09:01:52.226Z,14.80
2023-02-25T09:03:54.074Z,15.27
2023-02-25T09:05:56.314Z,16.30
2023-02-25T09:08:01.031Z,16.58
2023-02-25T09:10:06.628Z,16.35
2023-02-25T09:12:08.779Z,16.35
2023-02-25T09:14:10.650Z,15.88
2023-02-25T09:16:17.268Z,15.98
2023-02-25T09:18:19.108Z,16.10
2023-02-25T09:20:20.738Z,16.73
2023-02-25T09:22:22.340Z,15.13
2023-02-25T09:24:24.225Z,16.48
2023-02-25T09:26:25.845Z,17.23
2023-02-25T09:28:27.485Z,15.90
2023-02-25T09:30:29.170Z,16.83
2023-02-25T09:32:30.985Z,16.50
2023-02-25T09:34:35.489Z,16.10
2023-02-25T09:36:37.908Z,15.52
2023-02-25T09:38:41.334Z,15.38
2023-02-25T09:40:46.868Z,16.60
2023-02-25T09:43:28.262Z,15.93
2023-02-25T09:45:31.780Z,15.63
2023-02-25T09:47:48.221Z,16.35
2023-02-25T09:50:08.536Z,15.25
2023-02-25T09:52:19.019Z,15.18
2023-02-25T09:54:30.281Z,14.27
2023-02-25T09:56:31.942Z,15.00
2023-02-25T09:58:35.740Z,14.70
2023-02-25T10:03:07.571Z,16.15
2023-02-25T10:05:27.944Z,16.85
2023-02-25T10:07:35.837Z,15.82
2023-02-25T10:09:48.315Z,15.70
2023-02-25T10:12:01.211Z,16.90
2023-02-25T10:14:10.163Z,15.23
2023-02-25T10:16:45.092Z,13.63
2023-02-25T10:21:12.459Z,13.88
2023-02-25T10:23:14.037Z,13.77
2023-02-25T10:25:20.446Z,14.88
2023-02-25T10:27:27.848Z,15.07
2023-02-25T10:29:42.576Z,10.20
2023-02-25T10:31:45.897Z,9.85
2023-02-25T10:33:50.430Z,5.18
2023-02-25T10:36:15.022Z,7.75
2023-02-25T10:40:22.131Z,10.63
2023-02-25T10:42:24.297Z,12.25
2023-02-25T10:44:25.922Z,12.85
2023-02-25T10:46:34.986Z,8.80
2023-02-25T10:48:37.252Z,7.32
2023-02-25T10:50:45.985Z,11.05
2023-02-25T10:52:54.548Z,10.93
2023-02-25T10:54:56.188Z,10.93
2023-02-25T10:57:00.859Z,7.13
2023-02-25T10:59:08.456Z,5.78
2023-02-25T11:01:10.088Z,4.88
2023-02-25T11:03:21.968Z,5.85
2023-02-25T11:05:43.677Z,4.55
2023-02-25T11:07:47.731Z,5.88
2023-02-25T11:09:49.572Z,4.63
2023-02-25T11:12:01.240Z,5.55
2023-02-25T11:14:09.043Z,5.10
2023-02-25T11:16:13.309Z,4.95
2023-02-25T11:18:31.206Z,4.97
2023-02-25T11:20:33.546Z,5.53
2023-02-25T11:22:39.987Z,4.93
2023-02-25T11:24:42.950Z,4.63
2023-02-25T11:26:47.792Z,4.35
2023-02-25T11:28:50.114Z,4.95
2023-02-25T11:30:52.132Z,6.20
2023-02-25T11:32:56.053Z,5.68
2023-02-25T11:37:49.502Z,4.88
2023-02-25T11:39:55.894Z,6.35
2023-02-25T11:42:02.532Z,4.80
2023-02-25T11:44:42.951Z,5.03
2023-02-25T11:46:45.076Z,4.55
2023-02-25T11:48:52.648Z,5.82
2023-02-25T11:51:01.293Z,5.10
2023-02-25T11:53:21.931Z,5.63
2023-02-25T11:55:51.503Z,4.90
2023-02-25T11:58:05.497Z,5.78
2023-02-25T12:00:21.404Z,6.47
2023-02-25T12:02:41.316Z,5.30
2023-02-25T12:05:12.133Z,5.40
2023-02-25T12:07:22.424Z,5.60
2023-02-25T12:09:42.486Z,5.00
2023-02-25T12:12:19.770Z,6.43
2023-02-25T12:14:36.311Z,4.60
2023-02-25T12:16:59.451Z,5.15
2023-02-25T12:19:11.760Z,4.97
2023-02-25T12:21:50.508Z,4.85
2023-02-25T12:24:29.459Z,5.18
2023-02-25T12:27:06.471Z,5.40
2023-02-25T12:29:17.023Z,4.88
2023-02-25T12:31:36.385Z,4.85
2023-02-25T12:33:47.056Z,5.70
2023-02-25T12:36:04.026Z,3.97
2023-02-25T12:38:39.869Z,5.70
2023-02-25T12:40:47.888Z,4.90
2023-02-25T12:43:04.704Z,5.13
2023-02-25T12:45:25.901Z,5.30
2023-02-25T12:47:57.707Z,7.20
2023-02-25T12:50:17.337Z,5.15
2023-02-25T12:52:38.948Z,5.32
2023-02-25T12:55:06.569Z,5.30
2023-02-25T12:57:38.756Z,5.43
2023-02-25T12:59:49.275Z,5.55
2023-02-25T13:02:09.587Z,5.20
2023-02-25T13:04:23.151Z,5.72
2023-02-25T13:06:40.084Z,4.60
2023-02-25T13:09:05.512Z,4.88
2023-02-25T13:11:16.432Z,5.97
2023-02-25T13:13:36.626Z,6.88
2023-02-25T13:15:53.986Z,5.15
2023-02-25T13:18:07.175Z,4.57
2023-02-25T13:20:20.786Z,5.50
2023-02-25T13:22:56.451Z,5.18
2023-02-25T13:25:10.758Z,4.85
2023-02-25T13:27:22.248Z,4.78
2023-02-25T13:29:30.196Z,4.80
2023-02-25T13:31:52.938Z,5.15
2023-02-25T13:34:19.526Z,4.85
2023-02-25T13:36:32.761Z,4.53
2023-02-25T13:38:52.571Z,4.97
2023-02-25T13:41:15.510Z,4.60
2023-02-25T13:43:29.333Z,4.50
2023-02-25T13:46:02.260Z,4.32
2023-02-25T13:48:27.899Z,4.60
2023-02-25T13:50:47.776Z,4.28
2023-02-25T13:53:04.315Z,4.20
2023-02-25T13:55:27.349Z,4.93
2023-02-25T13:58:05.862Z,4.80
2023-02-25T14:00:31.903Z,4.72
2023-02-25T14:03:09.830Z,4.97
2023-02-25T14:05:30.104Z,4.80
2023-02-25T14:07:56.859Z,4.97
2023-02-25T14:10:25.679Z,5.07
2023-02-25T14:12:44.381Z,5.35
2023-02-25T14:15:16.729Z,4.68
2023-02-25T14:17:59.971Z,5.13
2023-02-25T14:20:14.453Z,4.82
2023-02-25T14:22:24.958Z,4.13
2023-02-25T14:24:45.422Z,6.22
2023-02-25T14:27:11.639Z,5.47
2023-02-25T14:29:57.622Z,5.45
2023-02-25T14:32:22.073Z,4.68
2023-02-25T19:59:39.925Z,6.43
2023-02-25T20:01:42.146Z,6.20
2023-02-25T20:03:43.798Z,6.28
2023-02-25T20:05:45.441Z,6.15
2023-02-25T20:07:47.236Z,6.10
2023-02-25T20:09:49.001Z,5.82
2023-02-25T20:11:51.693Z,5.70
2023-02-25T20:13:53.265Z,5.47
2023-02-25T20:16:01.661Z,6.03
2023-02-25T20:18:03.502Z,6.10
2023-02-25T20:20:06.866Z,6.00
2023-02-25T20:22:08.667Z,5.60
2023-02-25T20:24:10.207Z,5.43
2023-02-25T20:26:13.791Z,6.15
2023-02-25T20:28:15.341Z,5.78
2023-02-25T20:30:17.764Z,5.68
2023-02-25T20:32:19.412Z,6.22
2023-02-25T20:34:23.589Z,6.25
2023-02-25T20:36:27.643Z,6.38
2023-02-25T20:38:33.667Z,5.43
2023-02-25T20:40:35.385Z,6.75
2023-02-25T20:42:37.097Z,5.70
2023-02-25T20:44:38.945Z,5.93
2023-02-25T20:46:42.645Z,5.93
2023-02-25T20:48:44.352Z,5.93
2023-02-25T20:50:46.246Z,5.80
2023-02-25T20:52:48.301Z,6.13
2023-02-25T20:54:50.116Z,5.88
2023-02-25T20:56:51.864Z,5.88
2023-02-25T20:58:54.897Z,5.78
2023-02-25T21:00:57.343Z,5.05
2023-02-25T21:02:59.030Z,5.30
2023-02-25T21:05:00.626Z,5.47
2023-02-25T21:07:03.798Z,5.32
2023-02-25T21:09:07.022Z,5.63
2023-02-25T21:11:09.125Z,5.82
2023-02-25T21:13:11.101Z,4.80
2023-02-25T21:15:12.705Z,5.28
2023-02-25T21:17:14.350Z,4.07
2023-02-25T21:19:16.093Z,5.20
2023-02-25T21:21:20.419Z,4.95
2023-02-25T21:23:24.538Z,4.88
2023-02-25T21:25:26.120Z,4.90
2023-02-25T21:27:29.136Z,4.90
2023-02-25T21:29:30.779Z,5.32
2023-02-25T21:31:36.099Z,4.85
2023-02-25T21:33:38.699Z,5.32
2023-02-25T21:35:40.805Z,4.57
2023-02-25T21:37:42.588Z,4.47
2023-02-25T21:39:44.217Z,4.65
2023-02-25T21:41:46.171Z,4.68
2023-02-25T21:43:47.869Z,4.50
2023-02-25T21:45:56.284Z,4.25
2023-02-25T21:47:57.875Z,4.53
2023-02-25T21:49:59.418Z,5.60
2023-02-25T21:52:01.620Z,5.00
2023-02-25T21:54:03.470Z,4.60
2023-02-25T21:56:13.085Z,5.35
2023-02-25T21:58:15.525Z,4.47
2023-02-25T22:00:17.599Z,4.35
2023-02-25T22:02:19.861Z,5.15
2023-02-25T22:04:21.495Z,4.15
2023-02-25T22:06:24.651Z,4.35
2023-02-25T22:08:26.501Z,4.35
2023-02-25T22:10:28.228Z,4.03
2023-02-25T22:12:29.973Z,5.13
2023-02-25T22:14:31.582Z,4.35
2023-02-25T22:16:33.833Z,5.15
2023-02-25T22:18:35.915Z,4.10
2023-02-25T22:20:37.462Z,4.63
2023-02-25T22:22:39.264Z,4.05
2023-02-25T22:24:40.867Z,4.40
2023-02-25T22:26:42.425Z,4.10
2023-02-25T22:28:44.514Z,4.18
2023-02-25T22:30:46.932Z,4.75
2023-02-25T22:32:48.674Z,4.78
2023-02-25T22:34:50.381Z,4.22
2023-02-25T22:36:52.242Z,4.65
2023-02-25T22:38:53.891Z,4.05
2023-02-25T22:40:55.625Z,4.88
2023-02-25T22:42:57.227Z,4.05
2023-02-25T22:44:58.809Z,4.60
2023-02-25T22:47:00.454Z,4.00
2023-02-25T22:49:02.946Z,4.03
2023-02-25T22:51:05.588Z,3.72
2023-02-25T22:53:07.187Z,4.38
2023-02-25T22:55:11.942Z,4.95
2023-02-25T22:57:13.530Z,4.53
2023-02-25T22:59:15.261Z,4.57
2023-02-25T23:01:19.423Z,4.75
2023-02-25T23:03:21.249Z,4.05
2023-02-25T23:05:22.872Z,4.32
2023-02-25T23:07:24.456Z,4.28
2023-02-25T23:09:26.189Z,3.92
2023-02-25T23:11:30.058Z,5.03
2023-02-25T23:13:31.714Z,4.60
2023-02-25T23:15:36.605Z,4.15
2023-02-25T23:17:38.962Z,4.00
2023-02-25T23:19:40.588Z,4.57
2023-02-25T23:21:42.391Z,4.80
2023-02-25T23:23:44.124Z,4.20
2023-02-25T23:25:51.515Z,3.72
2023-02-25T23:27:53.090Z,4.68
2023-02-25T23:29:54.729Z,4.05
2023-02-25T23:31:56.496Z,4.47
2023-02-25T23:34:08.830Z,4.80
2023-02-25T23:36:11.346Z,4.45
2023-02-25T23:38:13.240Z,4.18
2023-02-25T23:40:15.279Z,4.82
2023-02-25T23:42:16.903Z,4.47
2023-02-25T23:44:18.558Z,4.55
2023-02-25T23:46:20.394Z,4.45
2023-02-25T23:48:22.013Z,4.50
2023-02-25T23:50:23.657Z,4.72
2023-02-25T23:52:25.345Z,4.30
2023-02-25T23:54:26.974Z,4.13
2023-02-25T23:56:30.833Z,3.88
2023-02-25T23:58:32.524Z,4.82
